Strona główna
METAR-TAF:

METAR-TAF

Lotnisko :

Port lotniczy Nisz

Nisz, Serbia

Szerokość geograficzna: 43-20N, Długość geograficzna: 021-54E, wysokość: 202 m

Aktualna obserwacja pogody

Raport powstał 27 minut temu, godzina 11:00 UTC
Wiatr 8 kt od południowo-południowy zachód, zmienny między południowo-południowy wschód i zachód
Temperatura 14°C
Wilgotność 44%
Ciśnienie 1014 hPa
Widzialność 10 km lub więcej
Mało chmury na wysokości 4000 ft

METAR: LYNI 031100Z 21008KT 160V270 9999 FEW040 14/02 Q1014 NOSIG

czas: 13:27 (11:27 UTC)

Prognoza

Raport powstał 6 godziny i 27 minut temu, godzina 05:00 UTC
Prognoza ważna od 03 godzina 06 UTC do 04 godzina 06 UTC
Wiatr 6 kt od południowo-południowy zachód
Widzialność 10 km lub więcej
Brak chmur poniżej 1500 m i brak chmur cumulonimbus

TAF: LYNI 030500Z 0306/0406 21006KT CAVOK TX15/0313Z TN01/0306Z

Obserwacja i prognoza pogody dla ponad 4000 lotnisk (raport METAR i TAF).

Dostępne stacje oznaczono żółtymi i czerwonymi punktami na mapie.

Najedź kursorem aby zobaczyć nazwę stacji.

Kliknij aby zobaczyć obserwacje i prognozy pogody.

Aby zmienić mapę: kliknij na zielony przycisk z czarnym krzyżykiem, aby powiększyć; na zielony przycisk z myślnikiem, aby pomniejszyć; na zielone strzałki, aby przejść do map sąsiednich.


METAR-TAF: